Time;durP1;ratioP1;P1;durP2;ratioP2;P2;SDS_P1;SDS_P2;PMS_P1;PMS_P2;Temp;Humidity;BMP_temperature;BMP_pressure;BME280_temperature;BME280_humidity;BME280_pressure;Samples;Min_cycle;Max_cycle;Signal;HPM_P1;HPM_P2
2023/09/10 00:02:08;;;;;;;6.45;3.40;;;;;;;21.33;61.68;101404.81;5032931;28;20029;-54
2023/09/10 00:04:34;;;;;;;6.53;4.10;;;;;;;21.50;62.20;101407.34;5032666;28;20113;-54
2023/09/10 00:07:00;;;;;;;7.57;4.28;;;;;;;21.39;60.87;101411.09;5032781;28;20026;-52
2023/09/10 00:09:26;;;;;;;6.43;4.18;;;;;;;21.49;60.92;101400.25;5015072;28;20461;-52
2023/09/10 00:11:53;;;;;;;7.22;3.72;;;;;;;21.29;61.86;101395.50;5032684;28;20032;-52
2023/09/10 00:14:19;;;;;;;7.93;3.95;;;;;;;21.32;62.53;101395.81;5032617;28;20100;-51
2023/09/10 00:16:45;;;;;;;7.82;3.83;;;;;;;21.33;62.79;101394.72;5032643;28;20017;-52
2023/09/10 00:19:12;;;;;;;8.05;4.70;;;;;;;21.03;62.93;101391.78;5048307;28;20033;-52
2023/09/10 00:21:38;;;;;;;6.30;3.80;;;;;;;21.11;62.85;101390.50;5036673;28;20022;-51
2023/09/10 00:24:05;;;;;;;6.55;3.83;;;;;;;21.04;63.22;101385.25;5036797;28;20523;-52
2023/09/10 00:26:32;;;;;;;8.38;4.50;;;;;;;20.72;64.45;101391.59;5036778;28;20029;-52
2023/09/10 00:28:58;;;;;;;8.43;4.22;;;;;;;20.86;64.08;101389.22;5036524;28;20025;-52
2023/09/10 00:31:24;;;;;;;9.05;4.68;;;;;;;20.85;64.96;101382.16;5036880;28;20076;-52
2023/09/10 00:33:50;;;;;;;5.88;4.20;;;;;;;20.71;66.03;101398.13;5036517;28;20361;-52
2023/09/10 00:36:16;;;;;;;10.10;4.72;;;;;;;20.52;65.91;101385.97;5036311;28;20390;-50
2023/09/10 00:38:44;;;;;;;7.97;4.53;;;;;;;20.45;65.86;101391.59;5036431;28;20424;-52
2023/09/10 00:41:10;;;;;;;8.50;5.05;;;;;;;20.42;67.03;101392.09;5036601;28;20032;-53
2023/09/10 00:43:36;;;;;;;8.55;4.40;;;;;;;20.34;67.10;101384.44;5036392;28;20036;-52
2023/09/10 00:46:03;;;;;;;9.95;4.72;;;;;;;20.31;67.20;101383.03;5036398;28;20033;-52
2023/09/10 00:48:32;;;;;;;8.20;4.80;;;;;;;20.42;66.85;101383.94;5036124;28;20030;-51
2023/09/10 00:50:59;;;;;;;7.50;4.60;;;;;;;20.28;66.91;101386.28;5036305;28;20104;-51
2023/09/10 00:53:26;;;;;;;9.40;4.43;;;;;;;20.24;68.17;101387.88;5036218;28;20037;-51
2023/09/10 00:55:53;;;;;;;6.65;4.78;;;;;;;20.27;67.66;101386.53;5036262;28;20025;-51
2023/09/10 00:58:19;;;;;;;5.45;3.92;;;;;;;19.92;67.08;101395.13;5036612;28;20026;-52
2023/09/10 01:00:47;;;;;;;6.05;4.13;;;;;;;19.94;68.23;101393.00;5036772;28;20070;-52
2023/09/10 01:03:15;;;;;;;7.45;4.55;;;;;;;19.81;68.96;101388.75;5036812;28;20029;-52
2023/09/10 01:05:41;;;;;;;13.38;4.88;;;;;;;19.68;68.75;101387.25;5036176;28;20535;-51
2023/09/10 01:08:08;;;;;;;10.13;4.63;;;;;;;19.53;70.30;101385.13;5036029;28;20116;-52
2023/09/10 01:11:03;;;;;;;7.57;4.65;;;;;;;19.78;69.74;101386.56;5035927;28;20033;-53
2023/09/10 01:13:45;;;;;;;7.53;4.53;;;;;;;19.53;70.87;101381.59;5036325;28;20053;-52
2023/09/10 01:16:54;;;;;;;8.15;4.82;;;;;;;19.37;72.50;101379.75;5036382;28;20033;-51
2023/09/10 01:19:41;;;;;;;8.38;5.03;;;;;;;19.28;71.84;101378.56;5036054;28;20103;-52
2023/09/10 01:22:32;;;;;;;11.90;5.25;;;;;;;19.16;73.14;101384.09;5035787;28;20041;-52
2023/09/10 01:25:00;;;;;;;11.45;5.40;;;;;;;19.12;73.37;101386.50;5035741;28;20480;-51
2023/09/10 01:27:26;;;;;;;7.78;4.97;;;;;;;18.84;74.56;101382.00;5036092;28;20134;-50
2023/09/10 01:29:52;;;;;;;7.72;5.40;;;;;;;19.04;74.44;101380.66;5035415;28;20049;-50
2023/09/10 01:32:36;;;;;;;10.18;5.25;;;;;;;18.96;74.53;101387.34;5035089;28;20029;-51
2023/09/10 01:35:21;;;;;;;12.88;6.07;;;;;;;18.84;75.77;101383.91;5035483;28;20064;-51
2023/09/10 01:37:56;;;;;;;13.55;6.35;;;;;;;18.81;76.23;101385.19;5035915;28;20033;-52
2023/09/10 01:40:28;;;;;;;13.43;6.18;;;;;;;18.62;76.87;101384.59;5035492;28;20120;-51
2023/09/10 01:42:54;;;;;;;13.75;6.00;;;;;;;18.48;77.73;101385.97;5035545;28;20026;-51
2023/09/10 01:45:23;;;;;;;12.65;6.35;;;;;;;18.52;77.59;101399.88;5035329;28;20030;-51
2023/09/10 01:47:50;;;;;;;10.27;5.30;;;;;;;18.34;78.09;101399.03;5035182;28;20022;-52
2023/09/10 01:50:17;;;;;;;11.82;6.50;;;;;;;18.33;78.53;101402.00;5035173;28;20170;-51
2023/09/10 01:52:43;;;;;;;13.85;6.05;;;;;;;18.18;79.72;101392.53;5035127;28;20126;-51
2023/09/10 01:55:09;;;;;;;17.02;6.07;;;;;;;18.11;79.71;101399.16;5034913;28;20013;-54
2023/09/10 01:57:35;;;;;;;11.40;5.53;;;;;;;18.00;80.35;101392.72;5035692;28;20021;-52
2023/09/10 02:00:04;;;;;;;19.63;6.75;;;;;;;17.86;81.05;101399.47;5035187;28;20029;-52
2023/09/10 02:02:30;;;;;;;16.27;6.65;;;;;;;17.72;81.61;101398.09;5035005;28;20026;-52
2023/09/10 02:04:57;;;;;;;13.27;6.00;;;;;;;17.66;82.50;101408.00;5035129;28;20075;-51
2023/09/10 02:07:24;;;;;;;9.98;6.18;;;;;;;17.74;82.55;101406.81;5035274;28;20022;-53
2023/09/10 02:09:50;;;;;;;11.98;6.10;;;;;;;17.62;83.01;101410.34;5034856;28;20029;-52
2023/09/10 02:12:16;;;;;;;15.48;6.70;;;;;;;17.57;83.20;101412.94;5034962;28;20036;-51
2023/09/10 02:14:48;;;;;;;11.73;5.90;;;;;;;17.29;84.16;101411.00;5034719;28;20029;-53
2023/09/10 02:17:15;;;;;;;10.23;6.35;;;;;;;17.36;84.62;101417.09;5034699;28;20363;-52
2023/09/10 02:19:41;;;;;;;11.38;6.35;;;;;;;17.39;84.34;101415.81;5034859;28;20108;-51
2023/09/10 02:22:07;;;;;;;10.77;7.32;;;;;;;17.42;84.61;101415.31;5034976;28;20424;-52
2023/09/10 02:24:34;;;;;;;12.93;6.53;;;;;;;17.33;85.03;101414.88;5034637;28;20409;-51
2023/09/10 02:27:00;;;;;;;13.25;6.65;;;;;;;17.30;85.30;101415.34;5034740;28;20097;-52
2023/09/10 02:29:26;;;;;;;17.52;8.00;;;;;;;17.10;86.77;101418.41;5034438;28;20504;-51
2023/09/10 02:31:52;;;;;;;9.95;6.03;;;;;;;17.07;87.45;101420.75;5034457;28;20041;-53
2023/09/10 02:34:19;;;;;;;18.10;7.43;;;;;;;16.80;89.06;101426.59;5034442;28;20037;-52
2023/09/10 02:36:45;;;;;;;18.08;7.07;;;;;;;16.92;88.51;101431.19;5034471;28;20064;-51
2023/09/10 02:39:11;;;;;;;13.15;7.68;;;;;;;16.59;90.31;101435.22;5034065;28;20099;-52
2023/09/10 02:41:37;;;;;;;10.90;6.35;;;;;;;16.79;89.48;101430.38;5034113;28;20100;-52
2023/09/10 02:44:04;;;;;;;21.98;9.68;;;;;;;16.52;90.74;101438.03;5033730;28;20029;-52
2023/09/10 02:46:30;;;;;;;12.05;7.03;;;;;;;16.46;91.69;101438.13;5034730;28;20028;-52
2023/09/10 02:48:57;;;;;;;15.15;7.55;;;;;;;16.51;90.98;101440.97;5034136;28;20036;-50
2023/09/10 02:51:23;;;;;;;12.75;7.30;;;;;;;16.52;90.85;101451.53;5034164;28;20052;-51
2023/09/10 02:53:49;;;;;;;17.38;7.15;;;;;;;16.50;91.45;101447.44;5034329;28;20371;-52
2023/09/10 02:56:15;;;;;;;14.68;6.95;;;;;;;16.42;92.11;101448.56;5034246;28;20408;-50
2023/09/10 02:58:41;;;;;;;13.27;6.80;;;;;;;16.38;92.52;101455.50;5034009;28;20500;-50
2023/09/10 03:01:08;;;;;;;15.88;8.50;;;;;;;16.39;92.24;101454.44;5033932;28;20104;-52
2023/09/10 03:03:34;;;;;;;15.45;7.70;;;;;;;16.28;92.85;101452.53;5033860;28;20049;-51
2023/09/10 03:06:01;;;;;;;18.13;7.68;;;;;;;16.26;93.13;101446.50;5034052;28;20037;-52
2023/09/10 03:08:27;;;;;;;18.27;8.45;;;;;;;16.15;93.97;101447.28;5033371;28;20045;-51
2023/09/10 03:10:53;;;;;;;23.75;9.07;;;;;;;16.04;94.83;101452.41;5033609;28;20403;-51
2023/09/10 03:13:20;;;;;;;17.75;7.50;;;;;;;16.14;94.59;101457.25;5033776;28;20021;-52
2023/09/10 03:15:49;;;;;;;17.05;7.88;;;;;;;16.06;94.33;101458.41;5033990;28;20018;-49
2023/09/10 03:18:15;;;;;;;23.48;9.50;;;;;;;15.82;95.93;101462.88;5033697;28;20024;-49
2023/09/10 03:20:42;;;;;;;16.48;8.25;;;;;;;16.03;94.74;101466.97;5033709;28;20446;-48
2023/09/10 03:23:08;;;;;;;20.52;9.18;;;;;;;16.01;94.45;101474.47;5033516;28;20110;-48
2023/09/10 03:25:39;;;;;;;19.20;7.60;;;;;;;15.83;96.16;101477.19;5033434;28;20026;-48
2023/09/10 03:28:06;;;;;;;18.50;8.45;;;;;;;15.76;96.23;101479.13;5033387;28;20022;-49
2023/09/10 03:30:35;;;;;;;19.10;7.82;;;;;;;15.56;97.67;101482.84;5034299;28;20049;-48
2023/09/10 03:33:01;;;;;;;22.70;8.32;;;;;;;15.55;98.03;101480.38;5034348;28;20104;-49
2023/09/10 03:35:28;;;;;;;18.60;8.60;;;;;;;15.62;98.04;101493.78;5033220;28;20045;-49
2023/09/10 03:37:54;;;;;;;19.95;8.65;;;;;;;15.62;98.04;101491.09;5033269;28;20033;-51
2023/09/10 03:40:20;;;;;;;19.48;8.13;;;;;;;15.42;98.12;101502.88;5033249;28;20437;-51
2023/09/10 03:42:46;;;;;;;12.52;7.75;;;;;;;15.42;99.31;101507.47;5033359;28;20060;-49
2023/09/10 03:45:13;;;;;;;19.08;8.73;;;;;;;15.48;99.09;101511.97;5033173;28;20036;-52
2023/09/10 03:47:39;;;;;;;17.30;9.52;;;;;;;15.37;99.23;101505.41;5033128;28;20026;-51
2023/09/10 03:50:05;;;;;;;15.07;7.75;;;;;;;15.41;99.18;101509.34;5033292;28;20106;-52
2023/09/10 03:52:32;;;;;;;15.73;8.10;;;;;;;15.28;99.55;101504.06;5033247;28;20026;-52
2023/09/10 03:54:58;;;;;;;13.13;7.80;;;;;;;15.31;99.84;101506.31;5033138;28;20022;-50
2023/09/10 03:57:24;;;;;;;14.93;7.55;;;;;;;15.38;99.06;101522.44;5032960;28;20028;-51
2023/09/10 03:59:50;;;;;;;16.27;8.35;;;;;;;15.19;99.46;101514.28;5032958;28;20048;-48
2023/09/10 04:02:17;;;;;;;20.42;8.80;;;;;;;15.28;99.10;101520.25;5032487;28;20536;-52
2023/09/10 04:04:43;;;;;;;17.17;7.60;;;;;;;15.34;98.93;101516.66;5032924;28;20021;-52
2023/09/10 04:07:10;;;;;;;17.30;8.73;;;;;;;15.39;98.43;101516.00;5032875;28;20040;-52
2023/09/10 04:09:36;;;;;;;17.35;8.63;;;;;;;15.27;98.75;101522.13;5032853;28;20025;-52
2023/09/10 04:12:02;;;;;;;18.05;8.85;;;;;;;15.35;98.48;101520.19;5032909;28;20026;-51
2023/09/10 04:14:30;;;;;;;15.90;8.30;;;;;;;15.31;98.19;101522.50;5032759;28;20168;-51
2023/09/10 04:16:57;;;;;;;21.48;8.95;;;;;;;15.32;97.95;101519.59;5032767;28;20477;-52
2023/09/10 04:19:23;;;;;;;13.10;8.57;;;;;;;15.20;97.90;101523.19;5032800;28;20113;-52
2023/09/10 04:21:49;;;;;;;15.80;8.55;;;;;;;15.17;97.67;101532.56;5033120;28;20022;-50
2023/09/10 04:24:16;;;;;;;14.95;8.57;;;;;;;15.13;97.86;101530.53;5032718;28;20030;-51
2023/09/10 04:26:42;;;;;;;12.38;8.30;;;;;;;15.18;96.94;101533.41;5032705;28;20033;-50
2023/09/10 04:29:08;;;;;;;16.38;8.52;;;;;;;15.26;96.53;101533.94;5032828;28;20033;-51
2023/09/10 04:31:43;;;;;;;16.08;8.00;;;;;;;15.04;97.18;101538.03;5032874;28;20060;-52
2023/09/10 04:34:10;;;;;;;14.00;8.18;;;;;;;15.05;96.72;101540.53;5032452;28;20029;-51
2023/09/10 04:36:36;;;;;;;22.15;10.25;;;;;;;15.00;97.97;101545.75;5032816;28;20084;-51
2023/09/10 04:39:08;;;;;;;16.42;9.75;;;;;;;14.96;97.97;101538.31;5032715;28;20021;-51
2023/09/10 04:41:35;;;;;;;18.98;9.60;;;;;;;14.89;98.25;101548.34;5014701;28;20026;-52
2023/09/10 04:44:05;;;;;;;18.88;9.63;;;;;;;14.91;98.07;101544.38;5032354;28;20045;-51
2023/09/10 04:46:31;;;;;;;14.95;9.05;;;;;;;15.01;97.37;101542.03;5032797;28;20478;-51
2023/09/10 04:48:58;;;;;;;20.10;11.02;;;;;;;14.71;98.76;101535.56;5032487;28;20515;-51
2023/09/10 04:51:24;;;;;;;17.63;9.43;;;;;;;14.77;98.71;101537.41;5032530;28;20442;-51
2023/09/10 04:53:50;;;;;;;23.23;10.35;;;;;;;14.75;99.14;101536.78;5032478;28;20104;-51
2023/09/10 04:56:17;;;;;;;19.20;9.77;;;;;;;14.85;99.20;101529.06;5032312;28;20032;-49
2023/09/10 04:58:43;;;;;;;18.92;10.43;;;;;;;14.73;98.82;101533.50;5032291;28;20029;-50
2023/09/10 05:01:10;;;;;;;15.43;9.43;;;;;;;14.83;98.87;101533.84;5032429;28;20025;-50
2023/09/10 05:03:36;;;;;;;15.88;9.77;;;;;;;14.90;97.71;101533.81;5032510;28;20049;-51
2023/09/10 05:06:05;;;;;;;22.52;10.45;;;;;;;14.94;97.48;101530.47;5033827;28;20026;-49
2023/09/10 05:08:31;;;;;;;16.55;9.18;;;;;;;15.03;97.03;101534.53;5035893;28;20034;-51
2023/09/10 05:10:57;;;;;;;18.50;9.45;;;;;;;15.12;96.34;101539.66;5035992;28;20049;-50
2023/09/10 05:13:24;;;;;;;16.70;8.95;;;;;;;14.89;97.19;101534.84;5036173;28;20065;-52
2023/09/10 05:15:54;;;;;;;16.92;8.75;;;;;;;14.91;97.01;101535.47;5035904;28;20025;-51
2023/09/10 05:18:21;;;;;;;17.20;10.38;;;;;;;14.86;97.04;101535.28;5036074;28;20442;-52
2023/09/10 05:20:48;;;;;;;20.23;9.48;;;;;;;14.87;96.92;101536.94;5035943;28;20033;-51
2023/09/10 05:23:14;;;;;;;15.40;9.02;;;;;;;15.02;96.73;101534.75;5036368;28;20351;-49
2023/09/10 05:25:41;;;;;;;16.40;8.55;;;;;;;15.05;96.46;101537.03;5036196;28;20022;-51
2023/09/10 05:28:08;;;;;;;16.70;8.82;;;;;;;14.82;97.33;101534.06;5036015;28;20378;-48
2023/09/10 05:30:39;;;;;;;15.00;8.77;;;;;;;14.76;97.61;101533.88;5036165;28;20025;-51
2023/09/10 05:33:06;;;;;;;16.60;8.60;;;;;;;15.00;96.85;101529.59;5035917;28;20037;-52
2023/09/10 05:35:32;;;;;;;13.13;7.75;;;;;;;14.99;96.54;101530.63;5035596;28;20060;-50
2023/09/10 05:37:58;;;;;;;11.50;8.20;;;;;;;14.92;96.45;101532.53;5035551;28;20025;-49
2023/09/10 05:40:25;;;;;;;15.27;8.00;;;;;;;15.02;95.97;101530.19;5035902;28;20052;-53
2023/09/10 05:42:51;;;;;;;17.33;8.40;;;;;;;15.08;94.90;101522.28;5035685;28;20053;-51
2023/09/10 05:45:19;;;;;;;15.80;7.82;;;;;;;15.04;95.59;101529.97;5035377;28;20461;-48
2023/09/10 05:47:45;;;;;;;18.05;8.68;;;;;;;14.95;95.96;101529.41;5035386;28;20029;-50
2023/09/10 05:50:11;;;;;;;15.93;9.45;;;;;;;14.77;97.36;101532.03;5035173;28;20389;-49
2023/09/10 05:52:38;;;;;;;18.80;9.10;;;;;;;14.89;96.81;101537.56;5035293;28;20026;-49
2023/09/10 05:55:04;;;;;;;18.95;9.60;;;;;;;14.86;97.51;101538.78;5035349;28;20057;-51
2023/09/10 05:57:30;;;;;;;13.07;7.63;;;;;;;14.89;96.90;101534.84;5035268;28;20049;-51
2023/09/10 05:59:57;;;;;;;16.65;8.68;;;;;;;14.79;97.35;101525.38;5035038;28;20501;-47
2023/09/10 06:02:23;;;;;;;14.95;8.13;;;;;;;14.74;98.07;101522.50;5034967;28;20045;-51
2023/09/10 06:04:50;;;;;;;13.40;9.10;;;;;;;14.74;98.12;101524.38;5035206;28;20354;-47
2023/09/10 06:07:16;;;;;;;18.42;9.43;;;;;;;14.76;97.65;101533.06;5034932;28;20053;-50
2023/09/10 06:09:42;;;;;;;13.95;8.07;;;;;;;14.65;98.09;101526.47;5034959;28;20408;-48
2023/09/10 06:12:08;;;;;;;19.17;8.50;;;;;;;14.70;97.20;101525.84;5034982;28;20018;-48
2023/09/10 06:14:35;;;;;;;13.48;7.20;;;;;;;14.74;96.84;101524.38;5034802;28;20084;-48
2023/09/10 06:17:02;;;;;;;18.52;8.57;;;;;;;14.65;97.42;101525.66;5033640;28;20492;-49
2023/09/10 06:19:28;;;;;;;12.52;7.35;;;;;;;14.73;97.51;101533.50;5035043;28;20068;-49
2023/09/10 06:21:55;;;;;;;16.50;8.57;;;;;;;14.76;97.04;101536.56;5034717;28;20021;-48
2023/09/10 06:24:21;;;;;;;20.55;9.02;;;;;;;14.78;95.98;101526.41;5034778;28;20355;-49
2023/09/10 06:26:47;;;;;;;17.20;10.20;;;;;;;14.70;96.47;101533.91;5034677;28;20509;-51
2023/09/10 06:29:14;;;;;;;19.52;8.48;;;;;;;14.75;96.50;101534.09;5034428;28;20108;-51
2023/09/10 06:31:40;;;;;;;18.17;8.48;;;;;;;14.60;96.62;101536.25;5034672;28;20026;-51
2023/09/10 06:34:06;;;;;;;19.52;8.82;;;;;;;14.61;97.17;101537.94;5034542;28;20029;-52
2023/09/10 06:36:33;;;;;;;16.17;8.82;;;;;;;14.56;97.45;101529.66;5034745;28;20053;-49
2023/09/10 06:38:59;;;;;;;17.70;9.23;;;;;;;14.52;97.95;101534.66;5034713;28;20374;-49
2023/09/10 06:41:25;;;;;;;15.23;9.02;;;;;;;14.57;97.82;101532.13;5034337;28;20025;-50
2023/09/10 06:43:51;;;;;;;11.50;7.28;;;;;;;14.70;96.97;101529.34;5034706;28;20040;-50
2023/09/10 06:46:18;;;;;;;12.95;8.30;;;;;;;14.74;95.74;101541.38;5034251;28;20366;-48
2023/09/10 06:48:44;;;;;;;19.63;9.30;;;;;;;14.52;97.02;101546.25;5016420;28;20428;-48
2023/09/10 06:51:10;;;;;;;12.85;8.13;;;;;;;14.65;96.48;101544.53;5034298;28;20065;-47
2023/09/10 06:53:36;;;;;;;15.85;7.68;;;;;;;14.78;96.15;101545.28;5034204;28;20482;-48
2023/09/10 06:56:03;;;;;;;14.05;8.18;;;;;;;14.76;95.77;101541.13;5033995;28;20164;-49
2023/09/10 06:58:29;;;;;;;16.38;10.65;;;;;;;14.83;95.76;101550.03;5034082;28;20152;-48
2023/09/10 07:00:55;;;;;;;18.52;11.25;;;;;;;14.69;96.67;101543.88;5033991;28;20075;-49
2023/09/10 07:03:23;;;;;;;14.90;9.98;;;;;;;14.68;97.56;101544.09;5033968;28;20033;-48
2023/09/10 07:05:49;;;;;;;13.93;9.40;;;;;;;14.84;96.94;101553.56;5034060;28;20025;-52
2023/09/10 07:08:15;;;;;;;12.55;8.77;;;;;;;14.93;95.75;101552.22;5033675;28;20057;-50
2023/09/10 07:10:42;;;;;;;18.20;9.95;;;;;;;14.76;96.33;101547.34;5033699;28;20037;-48
2023/09/10 07:13:08;;;;;;;19.50;8.43;;;;;;;14.84;96.31;101553.56;5034051;28;20025;-51
2023/09/10 07:15:36;;;;;;;16.15;8.57;;;;;;;14.72;97.10;101546.16;5033670;28;20388;-49
2023/09/10 07:18:03;;;;;;;14.05;8.15;;;;;;;14.92;95.80;101559.50;5033566;28;20052;-49
2023/09/10 07:20:30;;;;;;;14.98;8.27;;;;;;;14.95;94.52;101556.38;5033653;28;20025;-48
2023/09/10 07:22:56;;;;;;;13.95;8.63;;;;;;;14.93;94.78;101558.44;5033479;28;20072;-46
2023/09/10 07:25:23;;;;;;;14.25;7.70;;;;;;;14.93;94.58;101550.34;5033791;28;20037;-50
2023/09/10 07:27:49;;;;;;;14.70;8.95;;;;;;;14.87;95.21;101545.84;5033604;28;20481;-47
2023/09/10 07:30:15;;;;;;;13.85;8.18;;;;;;;15.02;94.55;101545.53;5033174;28;20056;-50
2023/09/10 07:32:42;;;;;;;21.13;10.35;;;;;;;14.88;95.25;101549.34;5033298;28;20034;-47
2023/09/10 07:35:08;;;;;;;12.93;9.55;;;;;;;15.03;94.72;101541.78;5033268;28;20049;-47
2023/09/10 07:37:34;;;;;;;16.02;9.32;;;;;;;14.96;95.20;101549.09;5033317;28;20036;-48
2023/09/10 07:40:01;;;;;;;19.75;10.63;;;;;;;14.99;95.19;101541.41;5033744;28;20026;-49
2023/09/10 07:42:27;;;;;;;18.42;10.23;;;;;;;14.94;95.49;101537.72;5033274;28;20056;-46
2023/09/10 07:44:53;;;;;;;16.13;10.75;;;;;;;14.92;95.60;101540.63;5033224;28;20041;-50
2023/09/10 07:47:20;;;;;;;24.23;12.50;;;;;;;14.90;96.00;101537.31;5033242;28;20025;-48
2023/09/10 07:49:51;;;;;;;19.90;11.68;;;;;;;14.87;96.10;101543.13;5033249;28;20053;-49
2023/09/10 07:52:17;;;;;;;20.30;11.65;;;;;;;14.98;95.88;101544.31;5032756;28;20100;-48
2023/09/10 07:54:43;;;;;;;19.50;11.43;;;;;;;15.12;95.51;101536.97;5033320;28;20022;-50
2023/09/10 07:57:09;;;;;;;19.58;12.02;;;;;;;15.16;94.21;101538.19;5033212;28;20025;-46
2023/09/10 07:59:35;;;;;;;17.42;12.38;;;;;;;15.10;94.75;101534.47;5033114;28;20470;-46
2023/09/10 08:02:02;;;;;;;14.63;10.65;;;;;;;15.15;94.25;101531.13;5033137;28;20033;-49
2023/09/10 08:04:28;;;;;;;20.13;13.07;;;;;;;15.02;94.49;101530.19;5033075;28;20021;-51
2023/09/10 08:06:54;;;;;;;13.90;10.57;;;;;;;15.03;95.20;101531.84;5032926;28;20095;-47
2023/09/10 08:09:21;;;;;;;20.20;10.18;;;;;;;15.05;95.25;101526.25;5032851;28;20036;-50
2023/09/10 08:11:47;;;;;;;17.15;9.25;;;;;;;15.22;94.08;101518.44;5032812;28;20033;-48
2023/09/10 08:14:13;;;;;;;16.10;8.45;;;;;;;15.22;93.46;101526.53;5032751;28;20104;-48
2023/09/10 08:16:39;;;;;;;12.98;8.38;;;;;;;15.16;93.99;101524.72;5032709;28;20028;-47
2023/09/10 08:19:06;;;;;;;12.40;8.40;;;;;;;15.26;92.97;101515.06;5033212;28;20127;-51
2023/09/10 08:21:32;;;;;;;13.60;8.07;;;;;;;15.29;92.98;101511.09;5033073;28;20033;-48
2023/09/10 08:23:58;;;;;;;15.20;8.13;;;;;;;15.24;93.06;101513.63;5032973;28;20025;-50
2023/09/10 08:26:24;;;;;;;14.82;7.95;;;;;;;15.21;93.18;101514.06;5032761;28;20530;-50
2023/09/10 08:28:50;;;;;;;18.90;7.88;;;;;;;15.21;93.22;101517.63;5032937;28;20469;-50
2023/09/10 08:31:17;;;;;;;16.10;7.68;;;;;;;15.26;93.40;101519.63;5032780;28;20029;-47
2023/09/10 08:33:43;;;;;;;15.25;9.05;;;;;;;15.09;93.32;101513.97;5032712;28;20071;-47
2023/09/10 08:36:09;;;;;;;15.20;8.63;;;;;;;15.12;93.61;101513.53;5032479;28;20057;-51
2023/09/10 08:38:35;;;;;;;15.13;8.27;;;;;;;15.10;93.67;101515.59;5032587;28;20032;-50
2023/09/10 08:41:20;;;;;;;17.70;8.30;;;;;;;15.10;93.95;101525.56;5034374;28;20037;-49
2023/09/10 08:43:57;;;;;;;18.98;7.97;;;;;;;15.08;93.84;101516.88;5036560;28;20506;-50
2023/09/10 08:46:30;;;;;;;16.65;7.35;;;;;;;15.11;92.42;101509.19;5036991;28;20053;-51
2023/09/10 08:48:57;;;;;;;14.20;7.28;;;;;;;14.99;93.04;101521.69;5036474;28;20108;-47
2023/09/10 08:51:24;;;;;;;11.13;6.80;;;;;;;15.05;92.37;101518.97;5036521;28;20481;-50
2023/09/10 08:53:57;;;;;;;14.77;7.53;;;;;;;14.94;92.87;101517.00;5036650;28;20021;-50
2023/09/10 08:56:24;;;;;;;18.13;7.05;;;;;;;14.83;93.79;101524.94;5036172;28;20029;-50
2023/09/10 08:58:52;;;;;;;13.82;6.78;;;;;;;14.85;93.76;101520.97;5036458;28;20099;-50
2023/09/10 09:01:19;;;;;;;11.00;6.05;;;;;;;14.89;93.56;101514.13;5036405;28;20497;-50
2023/09/10 09:03:47;;;;;;;13.60;7.57;;;;;;;14.75;94.56;101512.53;5036191;28;20029;-49
2023/09/10 09:06:14;;;;;;;14.50;7.43;;;;;;;14.64;95.83;101513.22;5036104;28;20026;-51
2023/09/10 09:08:44;;;;;;;16.35;7.30;;;;;;;14.64;96.18;101510.53;5036029;28;20046;-50
2023/09/10 09:11:12;;;;;;;21.13;7.78;;;;;;;14.76;95.41;101515.00;5036271;28;20021;-48
2023/09/10 09:13:42;;;;;;;16.80;6.78;;;;;;;14.83;94.24;101504.22;5036059;28;20021;-49
2023/09/10 09:16:11;;;;;;;16.02;6.82;;;;;;;14.59;95.24;101502.28;5036645;28;20025;-50
2023/09/10 09:18:39;;;;;;;12.57;6.22;;;;;;;14.79;94.79;101501.13;5035922;28;20025;-50
2023/09/10 09:21:19;;;;;;;14.25;6.15;;;;;;;14.75;94.86;101494.50;5036070;28;20028;-48
2023/09/10 09:23:51;;;;;;;16.40;7.10;;;;;;;14.86;94.76;101495.66;5036170;28;20365;-49
2023/09/10 09:26:19;;;;;;;13.55;6.78;;;;;;;14.81;94.79;101495.50;5035946;28;20026;-51
2023/09/10 09:28:45;;;;;;;11.63;7.30;;;;;;;14.83;94.65;101498.00;5035854;28;20384;-50
2023/09/10 09:31:12;;;;;;;16.48;7.57;;;;;;;14.80;94.06;101499.25;5035806;28;20060;-50
2023/09/10 09:33:38;;;;;;;14.55;6.68;;;;;;;14.92;93.37;101488.59;5035724;28;20025;-47
2023/09/10 09:36:09;;;;;;;10.48;6.82;;;;;;;14.89;92.90;101497.94;5035508;28;20503;-46
2023/09/10 09:38:40;;;;;;;13.25;7.25;;;;;;;14.90;93.08;101494.19;5035503;28;20115;-47
2023/09/10 09:41:07;;;;;;;12.35;6.72;;;;;;;14.94;93.40;101478.44;5035860;28;20021;-47
2023/09/10 09:43:36;;;;;;;14.13;7.32;;;;;;;14.98;92.62;101483.13;5035681;28;20029;-48
2023/09/10 09:46:03;;;;;;;14.98;6.95;;;;;;;15.04;92.42;101482.25;5035267;28;20036;-48
2023/09/10 09:48:30;;;;;;;13.75;7.57;;;;;;;15.01;91.51;101482.72;5035262;28;20540;-47
2023/09/10 09:50:57;;;;;;;11.38;6.28;;;;;;;15.00;92.05;101483.75;5017544;28;20025;-47
2023/09/10 09:53:33;;;;;;;17.40;7.95;;;;;;;14.84;92.35;101486.16;5035014;28;20037;-47
2023/09/10 09:56:03;;;;;;;12.75;7.65;;;;;;;14.78;92.65;101480.59;5035285;28;20118;-47
2023/09/10 09:58:29;;;;;;;18.10;8.90;;;;;;;14.86;92.18;101484.06;5035069;28;20163;-49
2023/09/10 10:00:57;;;;;;;12.02;7.20;;;;;;;14.99;92.57;101482.13;5035187;28;20022;-47
2023/09/10 10:03:23;;;;;;;18.20;6.68;;;;;;;14.95;93.21;101477.38;5035151;28;20022;-47
2023/09/10 10:05:53;;;;;;;14.10;7.22;;;;;;;14.90;93.78;101488.81;5035165;28;20022;-47
2023/09/10 10:08:25;;;;;;;12.65;6.07;;;;;;;14.87;94.16;101491.94;5035186;28;20022;-46
2023/09/10 10:10:52;;;;;;;18.58;6.80;;;;;;;14.78;94.63;101483.31;5034983;28;20029;-47
2023/09/10 10:13:20;;;;;;;18.02;6.85;;;;;;;14.89;94.11;101484.47;5034837;28;20124;-47
2023/09/10 10:15:48;;;;;;;13.40;6.28;;;;;;;14.89;93.77;101484.47;5034901;28;20053;-47
2023/09/10 10:18:20;;;;;;;17.05;7.80;;;;;;;14.74;94.68;101473.16;5034908;28;20084;-48
2023/09/10 10:20:49;;;;;;;14.07;6.45;;;;;;;14.86;94.34;101471.41;5034871;28;20029;-50
2023/09/10 10:23:20;;;;;;;17.45;7.13;;;;;;;14.85;94.39;101467.06;5016985;28;20386;-47
2023/09/10 10:25:48;;;;;;;15.90;6.55;;;;;;;14.83;94.74;101461.09;5035065;28;20053;-47
2023/09/10 10:28:14;;;;;;;12.18;6.20;;;;;;;14.90;94.29;101464.56;5034747;28;20083;-46
2023/09/10 10:30:59;;;;;;;11.27;6.93;;;;;;;15.03;93.30;101466.31;5034893;28;20091;-46
2023/09/10 10:33:28;;;;;;;13.77;6.75;;;;;;;14.94;92.91;101468.47;5034983;28;20029;-50
2023/09/10 10:36:10;;;;;;;12.77;7.55;;;;;;;14.93;92.49;101464.09;5034616;28;20406;-47
2023/09/10 10:38:45;;;;;;;11.25;7.07;;;;;;;14.88;93.24;101465.81;5034722;28;20036;-47
2023/09/10 10:41:20;;;;;;;16.20;7.03;;;;;;;14.94;92.55;101467.66;5034489;28;20125;-49
2023/09/10 10:44:02;;;;;;;15.05;8.10;;;;;;;14.78;93.25;101469.81;5034349;28;20501;-47
2023/09/10 10:46:31;;;;;;;21.83;9.20;;;;;;;14.79;92.75;101473.34;5034386;28;20022;-46
2023/09/10 10:49:00;;;;;;;15.90;7.97;;;;;;;14.79;93.04;101473.34;5034507;28;20030;-48
2023/09/10 10:51:28;;;;;;;18.63;7.55;;;;;;;14.82;93.63;101474.75;5034239;28;20105;-47
2023/09/10 10:53:55;;;;;;;12.95;7.15;;;;;;;14.83;93.99;101471.88;5034526;28;20022;-47
2023/09/10 10:56:21;;;;;;;15.00;8.85;;;;;;;14.93;92.43;101476.75;5034121;28;20022;-47
2023/09/10 10:58:47;;;;;;;16.38;7.35;;;;;;;15.01;92.51;101477.31;5034321;28;20061;-47
2023/09/10 11:01:14;;;;;;;13.50;6.63;;;;;;;15.01;92.81;101473.81;5034119;28;20026;-49
2023/09/10 11:03:42;;;;;;;13.68;6.38;;;;;;;14.96;92.97;101470.94;5033434;28;20066;-50
2023/09/10 11:06:09;;;;;;;12.65;6.57;;;;;;;14.94;93.19;101473.84;5016145;28;20037;-47
2023/09/10 11:08:46;;;;;;;11.40;6.80;;;;;;;14.90;93.53;101486.13;5033762;28;20025;-47
2023/09/10 11:11:33;;;;;;;19.20;7.32;;;;;;;14.99;93.31;101478.56;5033844;28;20586;-47
2023/09/10 11:14:02;;;;;;;14.18;6.82;;;;;;;15.00;92.95;101475.66;5033894;28;20493;-47
2023/09/10 11:16:35;;;;;;;12.57;6.38;;;;;;;15.02;92.85;101486.22;5033743;28;20481;-47
2023/09/10 11:19:06;;;;;;;13.65;6.85;;;;;;;15.04;92.89;101478.72;5033742;28;20029;-50
2023/09/10 11:21:57;;;;;;;11.77;6.45;;;;;;;15.01;93.21;101481.88;5034307;28;20026;-50